createdAt,value
2023-09-07T00:02:38.674Z,73.01
2023-09-07T00:05:43.410Z,72.98
2023-09-07T00:08:47.380Z,73.35
2023-09-07T00:11:51.378Z,73.27
2023-09-07T00:14:56.012Z,73.10
2023-09-07T00:18:00.010Z,73.29
2023-09-07T00:21:04.589Z,73.28
2023-09-07T00:24:08.672Z,73.39
2023-09-07T00:27:13.046Z,73.40
2023-09-07T00:30:16.981Z,73.37
2023-09-07T00:33:21.540Z,73.36
2023-09-07T00:36:25.374Z,73.47
2023-09-07T00:39:29.365Z,73.37
2023-09-07T00:42:34.222Z,73.52
2023-09-07T00:45:39.764Z,73.65
2023-09-07T00:48:44.120Z,73.81
2023-09-07T00:51:48.614Z,73.65
2023-09-07T00:54:52.877Z,73.63
2023-09-07T00:57:57.144Z,73.92
2023-09-07T01:01:01.826Z,73.79
2023-09-07T01:04:06.287Z,73.76
2023-09-07T01:07:21.582Z,73.69
2023-09-07T01:10:25.934Z,73.71
2023-09-07T01:13:29.889Z,73.83
2023-09-07T01:16:40.096Z,73.68
2023-09-07T01:19:45.215Z,73.59
2023-09-07T01:22:49.345Z,73.72
2023-09-07T01:25:54.857Z,73.78
2023-09-07T01:28:59.447Z,73.83
2023-09-07T01:32:03.678Z,73.79
2023-09-07T01:35:11.315Z,73.86
2023-09-07T01:38:15.425Z,73.82
2023-09-07T01:41:19.381Z,73.78
2023-09-07T01:44:23.566Z,73.94
2023-09-07T01:47:27.687Z,73.83
2023-09-07T01:50:31.814Z,73.82
2023-09-07T01:53:36.053Z,74.20
2023-09-07T01:56:42.204Z,73.85
2023-09-07T01:59:46.453Z,73.94
2023-09-07T02:02:50.662Z,73.85
2023-09-07T02:05:55.331Z,73.92
2023-09-07T02:08:59.531Z,73.82
2023-09-07T02:12:05.308Z,74.06
2023-09-07T02:15:10.401Z,73.88
2023-09-07T02:18:14.503Z,74.01
2023-09-07T02:21:18.559Z,73.88
2023-09-07T02:24:22.609Z,73.95
2023-09-07T02:27:26.819Z,73.97
2023-09-07T02:30:31.110Z,74.10
2023-09-07T02:33:36.946Z,73.95
2023-09-07T02:36:41.434Z,73.96
2023-09-07T02:39:45.834Z,74.40
2023-09-07T02:42:49.682Z,74.12
2023-09-07T02:45:54.734Z,74.29
2023-09-07T02:48:59.897Z,74.36
2023-09-07T02:52:05.107Z,74.43
2023-09-07T02:55:09.444Z,74.36
2023-09-07T02:58:13.794Z,74.67
2023-09-07T03:01:22.005Z,74.46
2023-09-07T03:04:26.623Z,74.90
2023-09-07T03:07:33.977Z,74.83
2023-09-07T03:10:40.902Z,74.85
2023-09-07T03:13:45.461Z,74.97
2023-09-07T03:16:51.619Z,75.05
2023-09-07T03:19:56.153Z,75.23
2023-09-07T03:23:00.224Z,75.05
2023-09-07T03:26:04.211Z,74.99
2023-09-07T03:29:08.549Z,75.05
2023-09-07T03:32:13.144Z,75.17
2023-09-07T03:35:17.526Z,75.21
2023-09-07T03:38:21.432Z,75.02
2023-09-07T03:41:31.376Z,75.17
2023-09-07T03:44:35.674Z,75.21
2023-09-07T03:47:40.201Z,75.35
2023-09-07T03:50:44.516Z,75.44
2023-09-07T03:53:48.492Z,75.47
2023-09-07T03:56:52.634Z,75.40
2023-09-07T03:59:58.108Z,75.41
2023-09-07T04:03:02.332Z,75.36
2023-09-07T04:06:06.567Z,75.30
2023-09-07T04:09:11.547Z,75.47
2023-09-07T04:12:15.580Z,75.33
2023-09-07T04:15:19.744Z,75.36
2023-09-07T04:18:24.432Z,75.29
2023-09-07T04:21:28.855Z,75.31
2023-09-07T04:24:33.583Z,75.28
2023-09-07T04:27:39.075Z,75.38
2023-09-07T04:30:43.628Z,75.60
2023-09-07T04:33:48.312Z,75.59
2023-09-07T04:36:52.522Z,75.47
2023-09-07T04:39:57.169Z,75.48
2023-09-07T04:43:01.322Z,75.66
2023-09-07T04:46:05.538Z,75.81
2023-09-07T04:49:09.809Z,75.75
2023-09-07T04:52:13.761Z,75.80
2023-09-07T04:55:17.960Z,75.69
2023-09-07T04:58:22.162Z,75.88
2023-09-07T05:01:26.333Z,75.67
2023-09-07T05:04:31.883Z,75.78
2023-09-07T05:07:36.972Z,75.69
2023-09-07T05:10:41.147Z,75.50
2023-09-07T05:13:45.129Z,75.47
2023-09-07T05:16:49.233Z,75.57
2023-09-07T05:19:53.307Z,75.42
2023-09-07T05:22:58.013Z,75.13
2023-09-07T05:26:02.251Z,75.28
2023-09-07T05:29:06.196Z,75.24
2023-09-07T05:32:11.676Z,75.37
2023-09-07T05:35:17.857Z,75.56
2023-09-07T05:38:22.021Z,75.74
2023-09-07T05:41:26.418Z,75.91
2023-09-07T05:44:31.006Z,76.11
2023-09-07T05:47:35.108Z,75.82
2023-09-07T05:50:40.300Z,76.20
2023-09-07T05:53:44.427Z,76.25
2023-09-07T05:56:48.651Z,76.23
2023-09-07T05:59:53.484Z,76.24
2023-09-07T06:02:58.394Z,76.30
2023-09-07T06:06:03.856Z,76.45
2023-09-07T06:09:08.476Z,76.36
2023-09-07T06:12:12.648Z,76.35
2023-09-07T06:15:17.633Z,76.13
2023-09-07T06:18:22.203Z,76.12
2023-09-07T06:21:26.306Z,76.10
2023-09-07T06:24:30.458Z,75.94
2023-09-07T06:27:34.747Z,75.69
2023-09-07T06:30:39.059Z,75.68
2023-09-07T06:33:43.458Z,75.51
2023-09-07T06:36:48.530Z,75.40
2023-09-07T06:39:55.627Z,75.19
2023-09-07T06:42:59.886Z,75.11
2023-09-07T06:46:09.324Z,74.85
2023-09-07T06:49:14.090Z,74.62
2023-09-07T06:52:18.321Z,74.52
2023-09-07T06:55:22.953Z,74.26
2023-09-07T06:58:28.095Z,74.11
2023-09-07T07:01:33.661Z,74.04
2023-09-07T07:04:38.195Z,73.97
2023-09-07T07:07:42.691Z,73.51
2023-09-07T07:10:46.930Z,73.27
2023-09-07T07:13:51.729Z,73.22
2023-09-07T07:16:55.978Z,73.27
2023-09-07T07:20:00.631Z,72.88
2023-09-07T07:23:05.659Z,72.73
2023-09-07T07:26:10.215Z,72.13
2023-09-07T07:29:14.699Z,72.03
2023-09-07T07:32:18.838Z,71.73
2023-09-07T07:35:24.972Z,71.35
2023-09-07T07:38:29.594Z,70.87
2023-09-07T07:41:34.319Z,70.80
2023-09-07T07:44:38.548Z,71.04
2023-09-07T07:47:42.987Z,71.00
2023-09-07T07:50:47.239Z,70.70
2023-09-07T07:53:52.688Z,70.60
2023-09-07T07:56:57.413Z,70.34
2023-09-07T08:00:02.050Z,69.71
2023-09-07T08:03:08.486Z,69.49
2023-09-07T08:06:14.716Z,69.15
2023-09-07T08:09:19.047Z,68.98
2023-09-07T08:12:23.413Z,68.60
2023-09-07T08:15:27.591Z,68.17
2023-09-07T08:18:36.054Z,67.91
2023-09-07T08:21:43.278Z,67.51
2023-09-07T08:24:48.414Z,67.42
2023-09-07T08:27:55.068Z,67.37
2023-09-07T08:31:00.523Z,67.33
2023-09-07T08:34:06.714Z,67.47
2023-09-07T08:37:10.900Z,66.89
2023-09-07T08:40:18.320Z,66.75
2023-09-07T08:43:23.007Z,66.24
2023-09-07T08:46:28.014Z,65.17
2023-09-07T08:49:33.763Z,64.35
2023-09-07T08:52:39.393Z,64.26
2023-09-07T08:55:43.521Z,64.48
2023-09-07T08:58:50.622Z,64.67
2023-09-07T09:01:59.805Z,64.88
2023-09-07T09:05:06.026Z,64.39
2023-09-07T09:08:11.921Z,64.73
2023-09-07T09:11:17.563Z,64.20
2023-09-07T09:14:25.050Z,64.56
2023-09-07T09:17:29.147Z,64.46
2023-09-07T09:20:33.656Z,64.16
2023-09-07T09:23:38.882Z,63.64
2023-09-07T09:26:43.223Z,63.27
2023-09-07T09:29:47.165Z,63.21
2023-09-07T09:32:52.340Z,63.04
2023-09-07T09:35:57.720Z,62.55
2023-09-07T09:39:01.720Z,62.32
2023-09-07T09:42:06.040Z,61.99
2023-09-07T09:45:12.032Z,61.97
2023-09-07T09:48:17.663Z,61.20
2023-09-07T09:51:21.958Z,60.79
2023-09-07T09:54:27.570Z,61.42
2023-09-07T09:57:31.746Z,61.33
2023-09-07T10:00:39.410Z,60.99
2023-09-07T10:03:48.950Z,60.73
2023-09-07T10:07:00.546Z,60.38
2023-09-07T10:10:05.100Z,60.11
2023-09-07T10:13:09.442Z,60.09
2023-09-07T10:16:13.380Z,60.66
2023-09-07T10:19:18.711Z,60.63
2023-09-07T10:22:26.846Z,60.55
2023-09-07T10:25:33.022Z,60.66
2023-09-07T10:28:37.061Z,60.48
2023-09-07T10:31:54.067Z,60.21
2023-09-07T10:35:00.793Z,59.98
2023-09-07T10:38:06.286Z,60.37
2023-09-07T10:41:10.323Z,60.46
2023-09-07T10:44:15.187Z,60.37
2023-09-07T10:47:19.390Z,60.72
2023-09-07T10:50:23.738Z,60.57
2023-09-07T10:53:33.518Z,60.67
2023-09-07T10:56:37.709Z,60.46
2023-09-07T10:59:48.232Z,60.45
2023-09-07T11:02:52.559Z,60.56
2023-09-07T11:06:04.289Z,60.34
2023-09-07T11:09:12.346Z,60.61
2023-09-07T11:12:17.371Z,60.11
2023-09-07T11:15:22.130Z,59.03
2023-09-07T11:18:27.309Z,59.25
2023-09-07T11:21:33.975Z,58.84
2023-09-07T11:24:38.463Z,59.22
2023-09-07T11:27:42.581Z,59.12
2023-09-07T11:30:54.696Z,57.84
2023-09-07T11:33:58.824Z,56.76
2023-09-07T11:37:05.695Z,56.07
2023-09-07T11:40:13.268Z,55.39
2023-09-07T11:43:22.109Z,55.32
2023-09-07T11:46:26.083Z,55.02
2023-09-07T11:49:31.023Z,54.45
2023-09-07T11:52:35.852Z,54.38
2023-09-07T11:55:42.301Z,54.46
2023-09-07T11:58:46.519Z,54.23
2023-09-07T12:01:50.651Z,54.21
2023-09-07T12:04:55.664Z,54.01
2023-09-07T12:08:00.209Z,53.83
2023-09-07T12:11:05.380Z,54.11
2023-09-07T12:14:09.327Z,53.63
2023-09-07T12:17:13.564Z,52.69
2023-09-07T12:20:17.958Z,51.99
2023-09-07T12:23:22.027Z,51.92
2023-09-07T12:26:26.022Z,51.84
2023-09-07T12:29:30.110Z,52.54
2023-09-07T12:32:34.912Z,52.51
2023-09-07T12:35:39.605Z,52.30
2023-09-07T12:38:43.621Z,53.54
2023-09-07T12:41:47.715Z,53.72
2023-09-07T12:44:51.679Z,53.41
2023-09-07T12:47:55.692Z,52.36
2023-09-07T12:50:59.656Z,52.07
2023-09-07T12:54:04.410Z,51.83
2023-09-07T12:57:08.650Z,51.16
2023-09-07T13:00:13.192Z,51.15
2023-09-07T13:03:17.548Z,50.91
2023-09-07T13:06:21.823Z,51.20
2023-09-07T13:09:25.798Z,51.33
2023-09-07T13:12:29.726Z,51.22
2023-09-07T13:15:34.408Z,51.54
2023-09-07T13:18:39.582Z,51.59
2023-09-07T13:21:43.599Z,51.97
2023-09-07T13:24:47.581Z,51.73
2023-09-07T13:27:51.817Z,51.35
2023-09-07T13:30:55.935Z,51.06
2023-09-07T13:34:00.286Z,50.80
2023-09-07T13:37:04.495Z,50.87
2023-09-07T13:40:09.245Z,50.77
2023-09-07T13:43:13.458Z,50.22
2023-09-07T13:46:17.744Z,50.10
2023-09-07T13:49:22.476Z,50.72
2023-09-07T13:52:27.260Z,50.29
2023-09-07T13:55:32.001Z,49.70
2023-09-07T13:58:36.099Z,49.70
2023-09-07T14:01:40.548Z,47.82
2023-09-07T14:04:44.573Z,47.29
2023-09-07T14:07:49.151Z,46.90
2023-09-07T14:10:53.068Z,46.77
2023-09-07T14:13:57.371Z,46.62
2023-09-07T14:17:01.782Z,46.98
2023-09-07T14:20:06.386Z,45.79
2023-09-07T14:23:10.352Z,45.54
2023-09-07T14:26:14.760Z,45.18
2023-09-07T14:29:18.923Z,44.73
2023-09-07T14:32:22.882Z,44.89
2023-09-07T14:35:26.846Z,44.55
2023-09-07T14:38:30.997Z,43.05
2023-09-07T14:41:38.276Z,42.14
2023-09-07T14:44:42.215Z,41.10
2023-09-07T14:47:46.750Z,40.52
2023-09-07T14:50:50.708Z,40.16
2023-09-07T14:53:54.746Z,39.58
2023-09-07T14:56:58.764Z,39.51
2023-09-07T15:00:04.037Z,39.85
2023-09-07T15:03:08.127Z,39.75
2023-09-07T15:06:13.537Z,39.77
2023-09-07T15:09:17.602Z,40.44
2023-09-07T15:12:21.595Z,40.38
2023-09-07T15:15:26.235Z,40.85
2023-09-07T15:18:30.641Z,41.16
2023-09-07T15:21:34.876Z,41.28
2023-09-07T15:24:38.905Z,42.21
2023-09-07T15:27:44.759Z,42.76
2023-09-07T15:30:48.759Z,42.80
2023-09-07T15:33:53.082Z,43.22
2023-09-07T15:36:57.202Z,43.63
2023-09-07T15:40:01.546Z,43.87
2023-09-07T15:43:05.941Z,44.53
2023-09-07T15:46:10.011Z,44.84
2023-09-07T15:49:13.987Z,44.80
2023-09-07T15:52:20.292Z,45.15
2023-09-07T15:55:24.612Z,45.35
2023-09-07T15:58:28.658Z,45.71
2023-09-07T16:01:32.898Z,46.29
2023-09-07T16:04:36.972Z,46.36
2023-09-07T16:07:40.963Z,46.69
2023-09-07T16:10:44.934Z,47.54
2023-09-07T16:13:48.942Z,48.05
2023-09-07T16:16:53.213Z,48.49
2023-09-07T16:19:57.536Z,48.78
2023-09-07T16:23:01.423Z,49.02
2023-09-07T16:26:05.620Z,49.35
2023-09-07T16:29:10.817Z,50.18
2023-09-07T16:32:15.630Z,50.37
2023-09-07T16:35:19.778Z,50.63
2023-09-07T16:38:24.274Z,51.22
2023-09-07T16:41:28.217Z,51.80
2023-09-07T16:44:32.748Z,52.30
2023-09-07T16:47:36.757Z,52.75
2023-09-07T16:50:46.245Z,53.44
2023-09-07T16:53:50.324Z,53.69
2023-09-07T16:56:54.590Z,54.49
2023-09-07T16:59:58.619Z,55.17
2023-09-07T17:03:05.407Z,55.72
2023-09-07T17:06:09.609Z,56.35
2023-09-07T17:09:13.766Z,56.85
2023-09-07T17:12:18.068Z,57.24
2023-09-07T17:15:22.460Z,57.80
2023-09-07T17:18:26.627Z,58.03
2023-09-07T17:21:30.662Z,58.62
2023-09-07T17:24:34.630Z,59.21
2023-09-07T17:27:38.872Z,59.42
2023-09-07T17:30:42.839Z,59.20
2023-09-07T17:33:47.451Z,59.23
2023-09-07T17:36:52.208Z,59.96
2023-09-07T17:39:58.493Z,60.42
2023-09-07T17:43:04.890Z,60.53
2023-09-07T17:46:09.326Z,60.88
2023-09-07T17:49:13.858Z,61.29
2023-09-07T17:52:18.181Z,61.80
2023-09-07T17:55:22.089Z,62.13
2023-09-07T17:58:26.043Z,62.40
2023-09-07T18:01:30.384Z,62.75
2023-09-07T18:04:34.535Z,62.97
2023-09-07T18:07:38.453Z,63.13
2023-09-07T18:10:42.425Z,63.16
2023-09-07T18:13:49.492Z,63.14
2023-09-07T18:16:56.333Z,63.40
2023-09-07T18:20:00.490Z,63.67
2023-09-07T18:23:04.670Z,64.08
2023-09-07T18:26:15.832Z,64.29
2023-09-07T18:29:20.733Z,64.41
2023-09-07T18:32:27.714Z,64.72
2023-09-07T18:35:32.424Z,64.88
2023-09-07T18:38:36.622Z,65.07
2023-09-07T18:41:40.800Z,65.30
2023-09-07T18:44:44.759Z,65.28
2023-09-07T18:47:48.839Z,65.58
2023-09-07T18:51:01.659Z,65.64
2023-09-07T18:54:05.627Z,65.61
2023-09-07T18:57:09.879Z,65.64
2023-09-07T19:00:16.267Z,65.78
2023-09-07T19:03:20.540Z,65.93
2023-09-07T19:06:24.929Z,66.12
2023-09-07T19:09:28.964Z,66.29
2023-09-07T19:12:33.116Z,66.46
2023-09-07T19:15:39.850Z,66.58
2023-09-07T19:18:44.065Z,66.83
2023-09-07T19:21:48.059Z,67.05
2023-09-07T19:24:53.828Z,67.00
2023-09-07T19:27:57.770Z,67.15
2023-09-07T19:31:01.690Z,67.23
2023-09-07T19:34:08.863Z,67.44
2023-09-07T19:37:13.508Z,67.66
2023-09-07T19:40:18.816Z,67.80
2023-09-07T19:43:22.949Z,67.75
2023-09-07T19:46:27.850Z,68.01
2023-09-07T19:49:31.869Z,67.99
2023-09-07T19:52:35.852Z,68.09
2023-09-07T19:55:39.814Z,68.15
2023-09-07T19:58:43.790Z,68.33
2023-09-07T20:01:58.842Z,68.37
2023-09-07T20:05:02.850Z,68.46
2023-09-07T20:08:07.463Z,68.57
2023-09-07T20:11:14.288Z,68.67
2023-09-07T20:14:18.810Z,68.54
2023-09-07T20:17:22.866Z,68.43
2023-09-07T20:20:26.858Z,68.75
2023-09-07T20:23:33.660Z,68.90
2023-09-07T20:26:37.920Z,69.06
2023-09-07T20:29:41.862Z,69.31
2023-09-07T20:32:45.843Z,69.38
2023-09-07T20:35:49.857Z,69.54
2023-09-07T20:38:54.204Z,69.54
2023-09-07T20:41:58.228Z,69.43
2023-09-07T20:45:02.342Z,69.57
2023-09-07T20:48:06.547Z,69.82
2023-09-07T20:51:10.986Z,69.66
2023-09-07T20:54:15.554Z,69.69
2023-09-07T20:57:19.636Z,69.78
2023-09-07T21:00:23.794Z,69.67
2023-09-07T21:03:28.003Z,69.87
2023-09-07T21:06:32.267Z,70.10
2023-09-07T21:09:36.289Z,70.22
2023-09-07T21:12:43.601Z,70.27
2023-09-07T21:15:47.778Z,70.14
2023-09-07T21:18:53.907Z,70.27
2023-09-07T21:21:57.944Z,70.27
2023-09-07T21:25:01.907Z,70.51
2023-09-07T21:28:06.226Z,70.57
2023-09-07T21:31:11.509Z,70.64
2023-09-07T21:34:15.729Z,70.64
2023-09-07T21:37:19.814Z,70.63
2023-09-07T21:40:24.411Z,70.69
2023-09-07T21:43:29.004Z,70.59
2023-09-07T21:46:33.129Z,70.78
2023-09-07T21:49:37.314Z,70.85
2023-09-07T21:52:41.369Z,70.97
2023-09-07T21:55:45.389Z,70.91
2023-09-07T21:58:49.476Z,71.06
2023-09-07T22:01:54.290Z,71.12
2023-09-07T22:04:58.381Z,71.28
2023-09-07T22:08:02.397Z,71.36
2023-09-07T22:11:06.663Z,71.39
2023-09-07T22:14:10.554Z,71.44
2023-09-07T22:17:15.462Z,71.63
2023-09-07T22:20:19.673Z,71.77
2023-09-07T22:23:40.424Z,71.77
2023-09-07T22:26:47.768Z,71.83
2023-09-07T22:29:51.855Z,71.94
2023-09-07T22:32:56.127Z,71.91
2023-09-07T22:36:00.331Z,72.04
2023-09-07T22:39:04.793Z,71.98
2023-09-07T22:42:08.686Z,72.06
2023-09-07T22:45:13.863Z,72.20
2023-09-07T22:48:18.368Z,72.31
2023-09-07T22:51:22.289Z,72.39
2023-09-07T22:54:26.435Z,72.58
2023-09-07T22:57:30.503Z,72.61
2023-09-07T23:00:34.515Z,72.78
2023-09-07T23:03:38.565Z,72.84
2023-09-07T23:06:42.846Z,72.86
2023-09-07T23:09:47.284Z,72.83
2023-09-07T23:12:51.351Z,72.87
2023-09-07T23:15:55.334Z,72.94
2023-09-07T23:18:59.940Z,73.04
2023-09-07T23:22:04.300Z,73.02
2023-09-07T23:25:09.816Z,73.07
2023-09-07T23:28:13.800Z,73.17
2023-09-07T23:31:19.028Z,73.16
2023-09-07T23:34:23.168Z,73.33
2023-09-07T23:37:27.091Z,73.35
2023-09-07T23:40:31.039Z,73.38
2023-09-07T23:43:35.096Z,73.49
2023-09-07T23:46:39.066Z,73.44
2023-09-07T23:49:43.069Z,73.37
2023-09-07T23:52:46.986Z,73.34
2023-09-07T23:55:50.920Z,73.47
2023-09-07T23:58:54.898Z,73.47
